Terminal Aerodrome Forecast
Issued by NWS

Home | Current Version | Previous Version | Text Only | Print | Product List | Glossary On
Versions: 1 2 3 4 5 6 7 8 9 10 11 12 13 14
150
FTUS43 KDTX 051128
TAFMBS
TAF
KMBS 051128Z 0512/0612 01010KT P6SM SCT200
     FM051700 03014G20KT P6SM BKN050
     FM060000 04008KT P6SM SCT060=

USA.gov is the U.S. government's official web portal to all federal, state and local government web resources and services.